Time;durP1;ratioP1;P1;durP2;ratioP2;P2;SDS_P1;SDS_P2;PMS_P1;PMS_P2;Temp;Humidity;BMP_temperature;BMP_pressure;BME280_temperature;BME280_humidity;BME280_pressure;Samples;Min_cycle;Max_cycle;Signal;HPM_P1;HPM_P2
2023/01/10 00:01:32;;;;;;;13.57;4.25;;;;;;;7.03;100.00;101095.91;4719174;30;20103;-73
2023/01/10 00:04:00;;;;;;;13.20;4.35;;;;;;;7.03;100.00;101093.19;4717974;30;20463;-71
2023/01/10 00:06:28;;;;;;;16.50;4.90;;;;;;;7.01;100.00;101095.31;4718394;30;20049;-71
2023/01/10 00:08:59;;;;;;;15.15;3.90;;;;;;;6.99;100.00;101100.13;4690311;30;20055;-72
2023/01/10 00:14:12;;;;;;;10.57;3.60;;;;;;;6.96;100.00;101111.47;4720831;30;20089;-71
2023/01/10 00:16:41;;;;;;;13.38;4.00;;;;;;;6.94;100.00;101117.09;4707349;30;20085;-72
2023/01/10 00:19:09;;;;;;;11.48;3.67;;;;;;;6.95;100.00;101123.34;4727082;30;20069;-71
2023/01/10 00:21:38;;;;;;;12.88;4.15;;;;;;;6.96;100.00;101130.41;4689834;30;20426;-71
2023/01/10 00:24:16;;;;;;;12.85;3.80;;;;;;;6.95;100.00;101135.03;4687359;30;20137;-71
2023/01/10 00:26:49;;;;;;;13.43;3.97;;;;;;;6.98;100.00;101139.13;4713956;30;20128;-71
2023/01/10 00:29:18;;;;;;;12.93;4.35;;;;;;;6.95;100.00;101137.72;4721842;30;20087;-69
2023/01/10 00:31:46;;;;;;;18.60;4.75;;;;;;;6.96;100.00;101152.09;4720098;30;20081;-71
2023/01/10 00:34:14;;;;;;;15.13;4.20;;;;;;;6.94;100.00;101154.22;4720098;30;20089;-70
2023/01/10 00:36:44;;;;;;;14.95;4.20;;;;;;;6.93;100.00;101152.56;4718710;30;20045;-70
2023/01/10 00:39:13;;;;;;;15.35;3.95;;;;;;;6.92;100.00;101156.31;4718540;30;20053;-71
2023/01/10 00:44:27;;;;;;;14.32;4.10;;;;;;;6.89;100.00;101173.06;4720480;30;20088;-70
2023/01/10 00:46:55;;;;;;;15.30;4.22;;;;;;;6.86;100.00;101168.13;4718975;30;20111;-71
2023/01/10 00:49:22;;;;;;;12.93;3.97;;;;;;;6.86;100.00;101168.13;4719790;30;20494;-71
2023/01/10 00:51:50;;;;;;;11.70;3.90;;;;;;;6.83;100.00;101172.94;4704404;30;20088;-71
2023/01/10 00:54:18;;;;;;;13.50;4.22;;;;;;;6.82;100.00;101173.97;4719154;30;20053;-71
2023/01/10 00:56:47;;;;;;;15.45;3.78;;;;;;;6.81;100.00;101182.34;4689626;30;20084;-71
2023/01/10 00:59:14;;;;;;;11.30;3.60;;;;;;;6.82;100.00;101179.41;4718316;30;20429;-69
2023/01/10 01:01:42;;;;;;;13.43;3.92;;;;;;;6.82;100.00;101179.41;4704647;30;20061;-71
2023/01/10 01:04:10;;;;;;;12.70;4.10;;;;;;;6.82;100.00;101182.09;4704314;30;20052;-71
2023/01/10 01:06:37;;;;;;;16.70;4.72;;;;;;;6.81;100.00;101195.91;4719504;30;20511;-71
2023/01/10 01:09:05;;;;;;;16.27;4.72;;;;;;;6.78;100.00;101197.19;4716402;30;20128;-70
2023/01/10 01:11:33;;;;;;;10.85;3.75;;;;;;;6.78;100.00;101205.31;4690041;30;20489;-71
2023/01/10 01:14:00;;;;;;;14.60;4.00;;;;;;;6.77;100.00;101198.22;4704069;30;20391;-71
2023/01/10 01:16:28;;;;;;;12.05;4.07;;;;;;;6.75;100.00;101208.47;4714888;30;20418;-70
2023/01/10 01:18:56;;;;;;;14.55;4.15;;;;;;;6.74;100.00;101204.13;4701085;30;20058;-71
2023/01/10 01:21:27;;;;;;;12.43;3.50;;;;;;;6.74;100.00;101208.72;4700964;30;20504;-71
2023/01/10 01:23:55;;;;;;;11.75;4.30;;;;;;;6.72;100.00;101217.06;4701175;30;20092;-71
2023/01/10 01:26:23;;;;;;;14.55;4.15;;;;;;;6.72;100.00;101232.50;4707330;30;20461;-70
2023/01/10 01:28:51;;;;;;;13.25;4.45;;;;;;;6.70;100.00;101230.00;4703632;30;20080;-71
2023/01/10 01:31:19;;;;;;;15.50;4.07;;;;;;;6.70;100.00;101229.19;4717567;30;20144;-71
2023/01/10 01:33:47;;;;;;;14.63;4.28;;;;;;;6.65;100.00;101243.41;4717805;30;20067;-71
2023/01/10 01:36:15;;;;;;;12.77;4.13;;;;;;;6.66;100.00;101238.81;4717726;30;20121;-70
2023/01/10 01:38:42;;;;;;;15.40;4.78;;;;;;;6.67;100.00;101260.28;4698132;30;20438;-70
2023/01/10 01:44:14;;;;;;;11.57;4.13;;;;;;;6.73;100.00;101240.38;4648545;30;20093;-71
2023/01/10 01:46:54;;;;;;;11.13;4.00;;;;;;;6.75;100.00;101238.25;4701817;30;20057;-70
2023/01/10 01:49:23;;;;;;;14.32;4.30;;;;;;;6.71;100.00;101253.34;4701293;30;20061;-70
2023/01/10 01:51:58;;;;;;;13.32;4.30;;;;;;;6.71;100.00;101247.94;4701731;30;20057;-70
2023/01/10 01:54:26;;;;;;;12.50;3.92;;;;;;;6.73;100.00;101253.91;4700704;30;20084;-71
2023/01/10 01:56:59;;;;;;;14.73;4.85;;;;;;;6.74;100.00;101269.13;4700362;30;20100;-70
2023/01/10 01:59:37;;;;;;;16.02;4.80;;;;;;;6.72;100.00;101268.53;4717763;30;20175;-70
2023/01/10 02:02:14;;;;;;;15.60;4.00;;;;;;;6.71;100.00;101261.47;4719037;30;20049;-70
2023/01/10 02:05:10;;;;;;;16.38;4.63;;;;;;;6.71;100.00;101269.59;4717791;30;20071;-70
2023/01/10 02:07:41;;;;;;;14.55;4.20;;;;;;;6.71;100.00;101268.75;4718565;30;20463;-71
2023/01/10 02:10:33;;;;;;;13.75;4.32;;;;;;;6.72;100.00;101268.53;4689347;30;20059;-71
2023/01/10 02:13:04;;;;;;;12.82;4.28;;;;;;;6.71;100.00;101275.00;4717479;30;20084;-71
2023/01/10 02:15:32;;;;;;;13.48;4.15;;;;;;;6.72;100.00;101271.22;4700914;30;20491;-71
2023/01/10 02:18:01;;;;;;;14.38;4.25;;;;;;;6.68;100.00;101274.63;4714527;30;20186;-71
2023/01/10 02:20:46;;;;;;;18.25;4.80;;;;;;;6.67;100.00;101276.50;4714776;30;20053;-70
2023/01/10 02:23:31;;;;;;;13.90;4.40;;;;;;;6.69;100.00;101271.69;4717691;30;20521;-70
2023/01/10 02:26:20;;;;;;;17.55;4.75;;;;;;;6.68;100.00;101272.75;4718061;30;20388;-70
2023/01/10 02:29:05;;;;;;;12.13;4.45;;;;;;;6.68;100.00;101278.16;4719043;30;20061;-70
2023/01/10 02:31:49;;;;;;;11.32;3.70;;;;;;;6.68;100.00;101275.44;4702739;30;20087;-70
2023/01/10 02:34:27;;;;;;;14.50;4.40;;;;;;;6.70;100.00;101286.88;4713494;30;20448;-71
2023/01/10 02:37:10;;;;;;;14.10;4.95;;;;;;;6.70;100.00;101288.75;4709725;30;20400;-72
2023/01/10 02:39:40;;;;;;;15.40;4.50;;;;;;;6.67;100.00;101283.81;4701835;30;20065;-71
2023/01/10 02:42:14;;;;;;;13.50;4.07;;;;;;;6.66;100.00;101291.09;4717197;30;20057;-70
2023/01/10 02:45:22;;;;;;;14.00;4.60;;;;;;;6.66;100.00;101287.56;4692179;30;20057;-71
2023/01/10 02:47:50;;;;;;;12.07;4.13;;;;;;;6.65;100.00;101289.44;4688808;30;20151;-71
2023/01/10 02:50:43;;;;;;;15.15;5.10;;;;;;;6.62;100.00;101281.81;4721098;30;20061;-71
2023/01/10 02:53:14;;;;;;;13.25;4.30;;;;;;;6.62;100.00;101276.38;4717701;30;20052;-71
2023/01/10 02:56:03;;;;;;;12.07;3.88;;;;;;;6.65;100.00;101275.91;4720150;30;20061;-71
2023/01/10 02:58:50;;;;;;;14.55;4.65;;;;;;;6.65;100.00;101281.31;4734031;30;20049;-68
2023/01/10 03:01:31;;;;;;;14.25;4.60;;;;;;;6.65;100.00;101289.44;4733581;30;20049;-69
2023/01/10 03:04:16;;;;;;;15.85;4.22;;;;;;;6.67;100.00;101290.06;4717873;30;20049;-71
2023/01/10 03:06:53;;;;;;;19.83;4.95;;;;;;;6.67;100.00;101295.47;4736534;30;20084;-63
2023/01/10 03:09:59;;;;;;;14.07;4.47;;;;;;;6.64;100.00;101295.94;4718893;30;20068;-63
2023/01/10 03:12:48;;;;;;;15.43;4.47;;;;;;;6.66;100.00;101314.63;4701003;30;20071;-70
2023/01/10 03:15:18;;;;;;;13.32;4.53;;;;;;;6.63;100.00;101313.22;4717253;30;20059;-71
2023/01/10 03:17:49;;;;;;;16.88;4.95;;;;;;;6.63;100.00;101307.81;4702310;30;20064;-70
2023/01/10 03:20:20;;;;;;;16.55;4.57;;;;;;;6.63;100.00;101313.22;4702556;30;20128;-71
2023/01/10 03:22:48;;;;;;;15.40;5.40;;;;;;;6.61;100.00;101326.16;4718196;30;20522;-70
2023/01/10 03:25:17;;;;;;;15.73;4.95;;;;;;;6.60;100.00;101332.63;4702115;30;20518;-70
2023/01/10 03:27:58;;;;;;;13.82;4.30;;;;;;;6.59;100.00;101333.69;4716695;30;20053;-70
2023/01/10 03:30:46;;;;;;;15.50;4.65;;;;;;;6.58;100.00;101345.56;4712544;30;20054;-70
2023/01/10 03:33:17;;;;;;;16.98;5.00;;;;;;;6.55;100.00;101346.03;4699440;30;20060;-71
2023/01/10 03:35:59;;;;;;;18.05;5.13;;;;;;;6.55;100.00;101352.28;4715636;30;20057;-71
2023/01/10 03:38:35;;;;;;;16.30;5.10;;;;;;;6.58;100.00;101367.25;4717520;30;20053;-71
2023/01/10 03:41:25;;;;;;;15.10;4.93;;;;;;;6.57;100.00;101354.75;4687844;30;20061;-71
2023/01/10 03:46:48;;;;;;;16.35;4.95;;;;;;;6.63;100.00;101371.97;4716539;30;20059;-70
2023/01/10 03:49:17;;;;;;;18.30;4.80;;;;;;;6.60;100.00;101375.97;4701444;30;20057;-71
2023/01/10 03:51:45;;;;;;;16.45;4.65;;;;;;;6.60;100.00;101373.25;4701288;30;20053;-72
2023/01/10 03:54:15;;;;;;;12.05;4.47;;;;;;;6.61;100.00;101377.59;4716809;30;20059;-70
2023/01/10 03:56:50;;;;;;;15.68;4.78;;;;;;;6.63;100.00;101385.50;4719551;30;20475;-71
2023/01/10 03:59:27;;;;;;;14.02;4.30;;;;;;;6.60;100.00;101386.78;4704613;30;20144;-70
2023/01/10 04:01:55;;;;;;;17.17;4.78;;;;;;;6.59;100.00;101390.53;4719034;30;20128;-68
2023/01/10 04:04:22;;;;;;;15.20;4.35;;;;;;;6.56;100.00;101391.00;4720063;30;20446;-72
2023/01/10 04:06:50;;;;;;;15.10;4.60;;;;;;;6.54;100.00;101393.94;4719665;30;20056;-71
2023/01/10 04:09:18;;;;;;;18.25;4.53;;;;;;;6.54;100.00;101401.22;4704515;30;20059;-71
2023/01/10 04:11:46;;;;;;;13.40;4.25;;;;;;;6.52;100.00;101395.22;4705203;30;20160;-70
2023/01/10 04:14:14;;;;;;;18.35;4.80;;;;;;;6.53;100.00;101396.88;4720617;30;20053;-70
2023/01/10 04:16:42;;;;;;;15.77;4.85;;;;;;;6.51;100.00;101393.56;4720909;30;20111;-70
2023/01/10 04:19:09;;;;;;;13.35;4.57;;;;;;;6.51;100.00;101404.38;4719291;30;20041;-69
2023/01/10 04:21:37;;;;;;;14.52;4.43;;;;;;;6.50;100.00;101402.75;4720175;30;20097;-70
2023/01/10 04:24:05;;;;;;;18.83;5.10;;;;;;;6.47;100.00;101411.31;4718862;30;20164;-71
2023/01/10 04:26:33;;;;;;;17.38;5.32;;;;;;;6.47;100.00;101414.00;4717993;30;20114;-70
2023/01/10 04:29:01;;;;;;;15.05;4.80;;;;;;;6.47;100.00;101414.84;4702901;30;20045;-70
2023/01/10 04:31:30;;;;;;;16.85;4.70;;;;;;;6.50;100.00;101405.47;4704396;30;20115;-71
2023/01/10 04:33:57;;;;;;;13.80;4.47;;;;;;;6.48;100.00;101408.38;4720356;30;20151;-71
2023/01/10 04:36:26;;;;;;;16.30;5.15;;;;;;;6.46;100.00;101415.06;4718348;30;20516;-71
2023/01/10 04:38:54;;;;;;;15.23;4.68;;;;;;;6.47;100.00;101424.84;4713553;30;20042;-70
2023/01/10 04:41:21;;;;;;;20.30;5.45;;;;;;;6.48;100.00;101423.81;4701953;30;20265;-71
2023/01/10 04:43:49;;;;;;;14.18;4.05;;;;;;;6.49;100.00;101426.25;4702443;30;20087;-71
2023/01/10 04:46:17;;;;;;;16.30;4.47;;;;;;;6.47;100.00;101414.00;4673238;30;20499;-70
2023/01/10 04:48:46;;;;;;;17.27;4.93;;;;;;;6.45;100.00;101413.44;4700692;30;20064;-71
2023/01/10 04:51:14;;;;;;;19.35;5.15;;;;;;;6.43;100.00;101415.53;4702278;30;20059;-71
2023/01/10 04:53:42;;;;;;;19.90;5.47;;;;;;;6.43;100.00;101408.25;4715680;30;20534;-70
2023/01/10 04:56:18;;;;;;;14.18;4.55;;;;;;;6.45;100.00;101422.38;4718701;30;20064;-69
2023/01/10 04:58:46;;;;;;;18.73;5.15;;;;;;;6.46;100.00;101423.19;4703669;30;20503;-71
2023/01/10 05:01:16;;;;;;;16.60;4.72;;;;;;;6.47;100.00;101416.72;4704492;30;20141;-71
2023/01/10 05:03:47;;;;;;;17.27;4.72;;;;;;;6.50;100.00;101422.53;4703417;30;20415;-71
2023/01/10 05:06:16;;;;;;;13.27;4.32;;;;;;;6.51;100.00;101435.00;4719667;30;20107;-71
2023/01/10 05:08:44;;;;;;;17.35;4.38;;;;;;;6.52;100.00;101433.13;4717606;30;20049;-70
2023/01/10 05:11:13;;;;;;;20.83;5.50;;;;;;;6.50;100.00;101444.19;4718604;30;20064;-71
2023/01/10 05:13:41;;;;;;;17.08;4.38;;;;;;;6.50;100.00;101424.41;4717938;30;20057;-70
2023/01/10 05:16:09;;;;;;;14.15;4.30;;;;;;;6.50;100.00;101429.81;4718663;30;20457;-70
2023/01/10 05:18:37;;;;;;;18.05;5.15;;;;;;;6.47;100.00;101431.09;4721562;30;20061;-70
2023/01/10 05:21:06;;;;;;;20.33;4.75;;;;;;;6.49;100.00;101441.69;4714673;30;20090;-71
2023/01/10 05:23:34;;;;;;;15.88;4.55;;;;;;;6.46;100.00;101447.56;4702438;30;20052;-70
2023/01/10 05:26:11;;;;;;;15.30;4.75;;;;;;;6.46;100.00;101444.84;4721450;30;20061;-70
2023/01/10 05:28:39;;;;;;;16.90;5.10;;;;;;;6.42;100.00;101459.88;4717582;30;20554;-70
2023/01/10 05:31:09;;;;;;;15.95;4.35;;;;;;;6.42;100.00;101470.72;4706299;30;20053;-70
2023/01/10 05:33:37;;;;;;;17.75;5.15;;;;;;;6.40;100.00;101482.59;4718288;30;20142;-70
2023/01/10 05:36:05;;;;;;;16.15;5.10;;;;;;;6.38;100.00;101483.88;4719506;30;20109;-69
2023/01/10 05:38:33;;;;;;;14.63;4.43;;;;;;;6.39;100.00;101478.22;4717432;30;20084;-69
2023/01/10 05:41:02;;;;;;;16.10;4.47;;;;;;;6.37;100.00;101484.91;4702911;30;20053;-71
2023/01/10 05:43:30;;;;;;;21.70;5.57;;;;;;;6.35;100.00;101498.69;4718984;30;20060;-70
2023/01/10 05:45:58;;;;;;;18.10;5.07;;;;;;;6.34;100.00;101501.59;4718789;30;20049;-70
2023/01/10 05:48:26;;;;;;;14.18;4.43;;;;;;;6.33;100.00;101508.09;4716534;30;20041;-71
2023/01/10 05:50:53;;;;;;;22.33;4.72;;;;;;;6.35;100.00;101498.69;4689229;30;20045;-70
2023/01/10 05:53:21;;;;;;;18.27;5.03;;;;;;;6.36;100.00;101505.75;4703615;30;20056;-71
2023/01/10 05:55:57;;;;;;;17.80;5.13;;;;;;;6.38;100.00;101506.34;4717875;30;20088;-71
2023/01/10 05:58:25;;;;;;;19.83;5.88;;;;;;;6.39;100.00;101507.16;4702375;30;20164;-70
2023/01/10 06:00:54;;;;;;;20.98;5.95;;;;;;;6.37;100.00;101518.25;4702846;30;20061;-69
2023/01/10 06:03:23;;;;;;;19.23;5.22;;;;;;;6.40;100.00;101512.38;4717669;30;20149;-69
2023/01/10 06:05:51;;;;;;;15.10;4.65;;;;;;;6.42;100.00;101511.31;4702168;30;20118;-70
2023/01/10 06:08:19;;;;;;;21.70;5.50;;;;;;;6.39;100.00;101518.81;4717102;30;20053;-70
2023/01/10 06:10:47;;;;;;;19.40;5.70;;;;;;;6.40;100.00;101515.09;4699409;30;20530;-69
2023/01/10 06:13:15;;;;;;;18.67;5.47;;;;;;;6.37;100.00;101520.94;4703361;30;20441;-70
2023/01/10 06:15:47;;;;;;;20.48;5.25;;;;;;;6.38;100.00;101517.19;4706598;30;20053;-70
2023/01/10 06:18:15;;;;;;;17.25;4.75;;;;;;;6.37;100.00;101511.97;4701480;30;20120;-71
2023/01/10 06:20:43;;;;;;;20.15;5.72;;;;;;;6.32;100.00;101515.34;4713664;30;20057;-68
2023/01/10 06:23:11;;;;;;;26.65;6.55;;;;;;;6.31;100.00;101523.72;4718607;30;20053;-70
2023/01/10 06:25:40;;;;;;;23.83;6.43;;;;;;;6.36;100.00;101521.97;4702955;30;20422;-71
2023/01/10 06:28:09;;;;;;;25.67;6.22;;;;;;;6.45;100.00;101535.25;4703321;30;20067;-71
2023/01/10 06:30:37;;;;;;;19.95;5.38;;;;;;;6.43;100.00;101531.94;4702881;30;20060;-71
2023/01/10 06:33:06;;;;;;;18.42;5.28;;;;;;;6.41;100.00;101529.44;4719768;30;20053;-67
2023/01/10 06:35:35;;;;;;;22.42;5.57;;;;;;;6.43;100.00;101526.50;4736777;30;20053;-69
2023/01/10 06:38:02;;;;;;;21.77;5.45;;;;;;;6.44;100.00;101531.69;4724358;30;20041;-70
2023/01/10 06:40:30;;;;;;;25.00;6.20;;;;;;;6.42;100.00;101544.59;4719833;30;20191;-71
2023/01/10 06:42:58;;;;;;;21.45;5.53;;;;;;;6.42;100.00;101541.09;4716898;30;20053;-64
2023/01/10 06:45:26;;;;;;;25.77;5.38;;;;;;;6.44;100.00;101547.09;4737872;30;20057;-64
2023/01/10 06:47:54;;;;;;;17.27;5.07;;;;;;;6.45;100.00;101554.19;4397606;30;10000364;-68
2023/01/10 06:50:22;;;;;;;17.15;4.25;;;;;;;6.46;100.00;101551.25;4701105;30;20085;-71
2023/01/10 06:52:58;;;;;;;21.65;5.45;;;;;;;6.46;100.00;101561.25;4716348;30;20133;-70
2023/01/10 06:55:26;;;;;;;;;;;;;;;6.49;100.00;101566.22;4700545;30;20487;-69
2023/01/10 06:57:59;;;;;;;18.70;4.97;;;;;;;6.45;100.00;101567.72;4715050;30;19930;-69
2023/01/10 07:00:28;;;;;;;19.67;4.78;;;;;;;6.46;100.00;101558.53;4700156;30;20053;-69
2023/01/10 07:03:00;;;;;;;21.30;5.03;;;;;;;6.49;100.00;101563.50;4703576;30;20058;-70
2023/01/10 07:05:29;;;;;;;15.23;4.30;;;;;;;6.53;100.00;101570.97;4696505;30;20132;-69
2023/01/10 07:07:57;;;;;;;22.70;5.57;;;;;;;6.46;100.00;101569.38;4699684;30;20112;-69
2023/01/10 07:10:26;;;;;;;20.45;5.70;;;;;;;6.44;100.00;101583.13;4713698;30;20063;-69
2023/01/10 07:12:57;;;;;;;22.02;5.43;;;;;;;6.39;100.00;101591.91;4696983;30;20444;-69
2023/01/10 07:15:26;;;;;;;15.60;4.88;;;;;;;6.35;100.00;101596.13;4685239;30;20049;-70
2023/01/10 07:17:56;;;;;;;22.00;5.65;;;;;;;6.32;100.00;101595.72;4695638;30;20061;-70
2023/01/10 07:20:24;;;;;;;20.88;5.80;;;;;;;6.29;100.00;101596.16;4710905;30;20060;-70
2023/01/10 07:22:53;;;;;;;15.23;4.05;;;;;;;6.41;100.00;101605.22;4684264;30;20092;-70
2023/01/10 07:25:22;;;;;;;19.95;4.63;;;;;;;6.51;100.00;101607.44;4699069;30;20461;-70
2023/01/10 07:27:49;;;;;;;17.52;4.55;;;;;;;6.54;100.00;101615.09;4698725;30;20064;-72
2023/01/10 07:30:17;;;;;;;23.35;5.85;;;;;;;6.49;100.00;101623.06;4699716;30;20490;-70
2023/01/10 07:32:45;;;;;;;18.88;4.57;;;;;;;6.40;100.00;101625.25;4702484;30;20055;-70
2023/01/10 07:35:13;;;;;;;21.10;6.10;;;;;;;6.32;100.00;101626.31;4717435;30;20380;-71
2023/01/10 07:37:40;;;;;;;22.23;6.13;;;;;;;6.21;100.00;101635.16;4717249;30;20053;-70
2023/01/10 07:40:10;;;;;;;23.77;6.13;;;;;;;6.11;100.00;101643.75;4719047;30;20061;-69
2023/01/10 07:42:38;;;;;;;30.48;7.35;;;;;;;6.16;100.00;101645.81;4717501;30;20474;-70
2023/01/10 07:45:07;;;;;;;21.65;6.90;;;;;;;6.11;100.00;101656.44;4705418;30;20545;-70
2023/01/10 07:47:36;;;;;;;23.55;6.05;;;;;;;6.08;100.00;101649.56;4721295;30;20064;-69
2023/01/10 07:50:04;;;;;;;25.70;6.22;;;;;;;6.15;100.00;101654.97;4723383;30;20053;-70
2023/01/10 07:52:32;;;;;;;13.80;4.25;;;;;;;6.22;100.00;101661.16;4721237;30;20132;-70
2023/01/10 07:55:00;;;;;;;24.40;6.30;;;;;;;6.25;100.00;101659.88;4719823;30;20144;-70
2023/01/10 07:57:28;;;;;;;17.33;5.10;;;;;;;6.28;100.00;101665.72;4691451;30;20048;-70
2023/01/10 07:59:56;;;;;;;20.50;5.38;;;;;;;6.37;100.00;101653.56;4719555;30;20494;-70
2023/01/10 08:02:23;;;;;;;17.55;4.78;;;;;;;6.37;100.00;101659.00;4723039;30;20074;-72
2023/01/10 08:04:51;;;;;;;19.10;5.65;;;;;;;6.32;100.00;101661.50;4705600;30;20057;-70
2023/01/10 08:07:19;;;;;;;21.25;5.45;;;;;;;6.30;100.00;101654.66;4720549;30;20053;-70
2023/01/10 08:09:46;;;;;;;20.60;5.13;;;;;;;6.30;100.00;101660.91;4705618;30;20120;-69
2023/01/10 08:12:14;;;;;;;16.70;5.15;;;;;;;6.28;100.00;101665.72;4722158;30;20065;-71
2023/01/10 08:14:42;;;;;;;22.45;5.57;;;;;;;6.28;100.00;101657.59;4719332;30;20115;-71
2023/01/10 08:17:10;;;;;;;20.08;4.68;;;;;;;6.28;100.00;101676.53;4705292;30;20065;-70
2023/01/10 08:19:37;;;;;;;19.23;5.00;;;;;;;6.29;100.00;101663.81;4691041;30;20124;-71
2023/01/10 08:22:05;;;;;;;20.02;5.57;;;;;;;6.32;100.00;101666.09;4720456;30;20073;-70
2023/01/10 08:24:32;;;;;;;17.33;5.03;;;;;;;6.32;100.00;101666.91;4720611;30;20053;-70
2023/01/10 08:27:01;;;;;;;19.58;5.95;;;;;;;6.33;100.00;101667.75;4719480;30;20057;-69
2023/01/10 08:29:29;;;;;;;19.75;5.40;;;;;;;6.35;100.00;101680.03;4704462;30;20115;-71
2023/01/10 08:31:57;;;;;;;55.47;9.10;;;;;;;6.45;100.00;101670.59;4690282;30;20521;-70
2023/01/10 08:34:25;;;;;;;32.58;6.97;;;;;;;6.46;100.00;101675.78;4719407;30;20405;-70
2023/01/10 08:36:53;;;;;;;23.08;6.85;;;;;;;6.45;100.00;101676.84;4718868;30;20064;-70
2023/01/10 08:39:21;;;;;;;22.60;5.70;;;;;;;6.40;100.00;101674.78;4719075;30;20053;-71
2023/01/10 08:41:49;;;;;;;30.85;7.82;;;;;;;6.43;100.00;101667.28;4719658;30;20138;-70
2023/01/10 08:44:17;;;;;;;33.63;9.65;;;;;;;6.45;100.00;101673.31;4719145;30;20399;-70
2023/01/10 08:46:45;;;;;;;31.98;8.90;;;;;;;6.50;100.00;101668.06;4718937;30;20061;-70
2023/01/10 08:49:14;;;;;;;30.02;7.95;;;;;;;6.45;100.00;101670.59;4719012;30;20064;-71
2023/01/10 08:51:43;;;;;;;24.40;6.85;;;;;;;6.44;100.00;101675.16;4719478;30;20049;-71
2023/01/10 08:54:11;;;;;;;24.88;7.45;;;;;;;6.42;100.00;101666.41;4718823;30;20137;-70
2023/01/10 08:56:39;;;;;;;40.25;10.40;;;;;;;6.51;100.00;101673.22;4719339;30;20140;-70
2023/01/10 08:59:07;;;;;;;33.53;8.77;;;;;;;6.61;100.00;101670.03;4720835;30;20084;-69
2023/01/10 09:01:35;;;;;;;55.88;11.07;;;;;;;6.60;100.00;101673.81;4691100;30;20051;-70
2023/01/10 09:04:04;;;;;;;43.40;9.45;;;;;;;6.56;100.00;101667.16;4705671;30;20077;-70
2023/01/10 09:06:31;;;;;;;31.40;7.88;;;;;;;6.54;100.00;101661.97;4690132;30;20059;-69
2023/01/10 09:08:59;;;;;;;23.10;6.00;;;;;;;6.46;100.00;101664.13;4720299;30;20056;-70
2023/01/10 09:11:27;;;;;;;20.33;5.38;;;;;;;6.45;100.00;101665.19;4718958;30;20079;-69
2023/01/10 09:13:55;;;;;;;22.80;5.95;;;;;;;6.36;100.00;101662.72;4704620;30;20132;-70
2023/01/10 09:16:25;;;;;;;21.63;5.72;;;;;;;6.37;100.00;101659.00;4690232;30;20080;-69
2023/01/10 09:18:54;;;;;;;23.45;6.65;;;;;;;6.43;100.00;101659.97;4704412;30;20053;-70
2023/01/10 09:21:22;;;;;;;26.40;6.38;;;;;;;6.42;100.00;101660.19;4718969;30;20140;-69
2023/01/10 09:23:49;;;;;;;21.60;6.75;;;;;;;6.45;100.00;101651.66;4720411;30;20053;-70
2023/01/10 09:26:17;;;;;;;20.85;6.35;;;;;;;6.40;100.00;101639.59;4704734;30;20084;-70
2023/01/10 09:28:45;;;;;;;22.30;5.70;;;;;;;6.47;100.00;101644.97;4718863;30;20053;-70
2023/01/10 09:31:15;;;;;;;24.15;5.93;;;;;;;6.49;100.00;101645.53;4720059;30;20056;-68
2023/01/10 09:33:43;;;;;;;21.75;6.45;;;;;;;6.49;100.00;101650.13;4704399;30;20486;-69
2023/01/10 09:36:14;;;;;;;24.33;5.72;;;;;;;6.49;100.00;101650.13;4718333;30;20049;-68
2023/01/10 09:38:43;;;;;;;18.83;5.47;;;;;;;6.49;100.00;101658.25;4718548;30;20053;-69
2023/01/10 09:41:26;;;;;;;18.75;5.75;;;;;;;6.51;100.00;101656.16;4717982;30;20053;-69
2023/01/10 09:44:00;;;;;;;21.98;6.10;;;;;;;6.61;100.00;101660.06;4719379;30;20049;-69
2023/01/10 09:46:53;;;;;;;20.98;5.45;;;;;;;6.68;100.00;101659.97;4689673;30;20491;-69
2023/01/10 09:49:24;;;;;;;20.15;5.47;;;;;;;6.61;100.00;101653.78;4718929;30;20065;-69
2023/01/10 09:51:52;;;;;;;24.88;5.75;;;;;;;6.56;100.00;101661.75;4703403;30;20483;-70
2023/01/10 09:54:29;;;;;;;25.33;6.18;;;;;;;6.69;100.00;101645.41;4717264;30;20061;-70
2023/01/10 09:56:58;;;;;;;20.45;5.38;;;;;;;6.63;100.00;101648.16;4717884;30;20471;-70
2023/01/10 09:59:37;;;;;;;17.58;5.32;;;;;;;6.65;100.00;101656.88;4717882;30;20049;-70
2023/01/10 10:02:30;;;;;;;19.58;5.20;;;;;;;6.67;100.00;101652.09;4700866;30;20238;-70
2023/01/10 10:05:26;;;;;;;18.70;6.00;;;;;;;6.78;100.00;101654.06;4718443;30;20049;-69
2023/01/10 10:07:56;;;;;;;19.30;5.53;;;;;;;6.81;100.00;101659.03;4703800;30;20057;-69
2023/01/10 10:10:42;;;;;;;18.38;5.13;;;;;;;6.70;100.00;101652.47;4719828;30;20064;-70
2023/01/10 10:13:36;;;;;;;23.23;5.40;;;;;;;6.61;100.00;101672.72;4720324;30;20053;-66
2023/01/10 10:16:10;;;;;;;17.45;4.88;;;;;;;6.60;100.00;101663.78;4721822;30;20053;-69
2023/01/10 10:19:15;;;;;;;18.27;5.85;;;;;;;6.66;100.00;101651.22;4708334;30;20155;-70
2023/01/10 10:22:04;;;;;;;23.63;5.90;;;;;;;6.68;100.00;101641.00;4720705;30;20072;-64
2023/01/10 10:24:47;;;;;;;20.00;5.75;;;;;;;6.75;100.00;101644.50;4721681;30;20101;-68
2023/01/10 10:27:24;;;;;;;24.90;5.78;;;;;;;6.75;100.00;101628.25;4712474;30;20065;-69
2023/01/10 10:30:13;;;;;;;17.40;5.20;;;;;;;6.69;100.00;101629.16;4706823;30;20092;-70
2023/01/10 10:32:53;;;;;;;26.30;6.13;;;;;;;6.75;100.00;101625.53;4706665;30;20076;-69
2023/01/10 10:35:29;;;;;;;25.48;6.22;;;;;;;6.90;100.00;101618.94;4691622;30;20087;-69
2023/01/10 10:38:22;;;;;;;23.20;6.00;;;;;;;6.95;100.00;101616.38;4691975;30;20054;-70
2023/01/10 10:40:50;;;;;;;20.77;6.07;;;;;;;6.91;100.00;101615.19;4692734;30;20121;-69
2023/01/10 10:43:20;;;;;;;18.38;5.57;;;;;;;6.93;100.00;101622.03;4708194;30;20061;-69
2023/01/10 10:45:51;;;;;;;22.98;5.95;;;;;;;6.93;100.00;101607.69;4693813;30;20057;-69
2023/01/10 10:48:40;;;;;;;22.13;5.75;;;;;;;6.95;100.00;101606.41;4722840;30;20052;-69
2023/01/10 10:51:35;;;;;;;20.35;5.60;;;;;;;7.03;100.00;101599.84;4704708;30;20111;-70
2023/01/10 10:54:05;;;;;;;24.73;6.47;;;;;;;6.87;100.00;101597.72;4687353;30;20085;-70
2023/01/10 10:56:33;;;;;;;23.33;5.78;;;;;;;6.69;100.00;101599.38;4718472;30;20061;-70
2023/01/10 10:59:00;;;;;;;20.42;5.72;;;;;;;6.64;100.00;101593.78;4689293;30;20049;-70
2023/01/10 11:01:28;;;;;;;24.33;6.07;;;;;;;6.62;100.00;101601.31;4711124;30;20076;-70
2023/01/10 11:04:09;;;;;;;25.00;6.40;;;;;;;6.61;100.00;101592.34;4690741;30;20060;-70
2023/01/10 11:06:39;;;;;;;25.50;6.35;;;;;;;6.63;100.00;101591.28;4707385;30;20092;-69
2023/01/10 11:09:07;;;;;;;19.35;5.60;;;;;;;6.64;100.00;101588.38;4706711;30;20053;-70
2023/01/10 11:11:43;;;;;;;22.85;5.95;;;;;;;6.65;100.00;101584.59;4721693;30;20135;-70
2023/01/10 11:14:12;;;;;;;24.52;6.10;;;;;;;6.66;100.00;101582.72;4706653;30;20052;-69
2023/01/10 11:16:43;;;;;;;21.15;5.63;;;;;;;6.66;100.00;101577.28;4721116;30;20057;-69
2023/01/10 11:19:17;;;;;;;21.08;6.43;;;;;;;6.65;100.00;101581.91;4730166;30;20526;-69
2023/01/10 11:21:54;;;;;;;24.15;5.43;;;;;;;6.66;100.00;101570.00;4738566;30;20416;-70
2023/01/10 11:24:28;;;;;;;23.15;6.53;;;;;;;6.66;100.00;101561.06;4723996;30;20057;-69
2023/01/10 11:26:57;;;;;;;22.17;6.65;;;;;;;6.75;100.00;101565.13;4723192;30;20060;-69
2023/01/10 11:29:47;;;;;;;26.85;6.57;;;;;;;6.79;100.00;101561.75;4721104;30;20052;-69
2023/01/10 11:32:18;;;;;;;24.88;9.30;;;;;;;6.86;100.00;101560.88;4052913;30;10000799;-69
2023/01/10 11:34:57;;;;;;;23.17;7.13;;;;;;;6.89;100.00;101563.94;4718161;30;20053;-69
2023/01/10 11:37:30;;;;;;;29.98;12.52;;;;;;;6.95;100.00;101554.06;4703356;30;20136;-69
2023/01/10 11:40:16;;;;;;;23.73;8.18;;;;;;;6.97;100.00;101554.69;4702471;30;20119;-70
2023/01/10 11:42:45;;;;;;;36.70;12.15;;;;;;;7.06;100.00;101549.78;4717163;30;20136;-71
2023/01/10 11:45:31;;;;;;;28.17;10.05;;;;;;;7.11;100.00;101544.53;4702474;30;20067;-70
2023/01/10 11:48:07;;;;;;;35.38;12.75;;;;;;;7.29;100.00;101536.38;4702717;30;20081;-71
2023/01/10 11:50:41;;;;;;;33.75;13.13;;;;;;;7.24;100.00;101536.25;4716861;30;20051;-70